Time;durP1;ratioP1;P1;durP2;ratioP2;P2;SDS_P1;SDS_P2;PMS_P1;PMS_P2;Temp;Humidity;BMP_temperature;BMP_pressure;BME280_temperature;BME280_humidity;BME280_pressure;Samples;Min_cycle;Max_cycle;Signal;HPM_P1;HPM_P2
2022/07/11 00:02:05;;;;;;;1.38;1.15;;;21.70;50.00;;;;;;5014860;28;20224;-75
2022/07/11 00:04:32;;;;;;;1.23;1.13;;;21.70;50.00;;;;;;5016428;28;20267;-75
2022/07/11 00:06:59;;;;;;;1.48;1.17;;;21.70;50.00;;;;;;4998528;28;20691;-75
2022/07/11 00:09:27;;;;;;;1.25;1.08;;;21.70;50.00;;;;;;5016143;28;20220;-76
2022/07/11 00:11:54;;;;;;;1.08;0.98;;;21.70;50.00;;;;;;5016030;28;20208;-75
2022/07/11 00:14:22;;;;;;;0.95;0.93;;;21.60;50.00;;;;;;4998625;28;20659;-75
2022/07/11 00:16:50;;;;;;;2.03;1.00;;;21.70;50.00;;;;;;5014766;28;20685;-75
2022/07/11 00:19:16;;;;;;;0.93;0.70;;;21.60;49.90;;;;;;4998099;28;20221;-75
2022/07/11 00:21:44;;;;;;;1.50;1.10;;;21.60;49.90;;;;;;4998980;28;20335;-73
2022/07/11 00:24:10;;;;;;;1.02;1.00;;;21.60;49.80;;;;;;4998272;28;20205;-73
2022/07/11 00:26:38;;;;;;;1.10;1.00;;;21.60;49.80;;;;;;4998358;28;20535;-72
2022/07/11 00:29:05;;;;;;;1.02;1.00;;;21.70;49.90;;;;;;4998036;28;20671;-72
2022/07/11 00:31:33;;;;;;;1.73;1.13;;;21.70;49.90;;;;;;5014824;28;20221;-73
2022/07/11 00:34:00;;;;;;;0.90;0.90;;;21.70;49.80;;;;;;5014378;28;20208;-73
2022/07/11 00:36:28;;;;;;;1.27;1.00;;;21.70;49.80;;;;;;5015755;28;20193;-72
2022/07/11 00:38:55;;;;;;;1.00;0.95;;;21.70;49.80;;;;;;4998429;28;20243;-72
2022/07/11 00:41:22;;;;;;;1.33;0.98;;;21.70;49.80;;;;;;5014742;28;20232;-73
2022/07/11 00:43:52;;;;;;;1.10;0.82;;;21.70;49.90;;;;;;4998383;28;20200;-73
2022/07/11 00:46:19;;;;;;;1.02;0.95;;;21.60;49.70;;;;;;4998115;28;20254;-73
2022/07/11 00:48:47;;;;;;;1.02;0.93;;;21.70;49.80;;;;;;4997911;28;20292;-72
2022/07/11 00:51:15;;;;;;;1.00;1.00;;;21.70;49.80;;;;;;4997546;28;20216;-73
2022/07/11 00:53:41;;;;;;;1.13;1.00;;;21.60;49.80;;;;;;4997683;28;20197;-73
2022/07/11 00:56:09;;;;;;;1.10;1.00;;;21.70;49.90;;;;;;4997623;28;20283;-72
2022/07/11 00:58:36;;;;;;;1.05;0.98;;;21.70;49.90;;;;;;4997845;28;20208;-73
2022/07/11 01:01:03;;;;;;;1.17;1.13;;;21.60;49.80;;;;;;5013725;28;20709;-73
2022/07/11 01:03:30;;;;;;;0.90;0.90;;;21.60;49.90;;;;;;5015008;28;20189;-72
2022/07/11 01:05:59;;;;;;;0.90;0.90;;;21.60;49.90;;;;;;5013699;28;20197;-73
2022/07/11 01:08:31;;;;;;;1.45;0.90;;;21.60;49.90;;;;;;5014988;28;20197;-73
2022/07/11 01:11:01;;;;;;;0.85;0.85;;;21.60;49.90;;;;;;4997463;28;20228;-73
2022/07/11 01:13:28;;;;;;;0.80;0.80;;;21.60;49.90;;;;;;5013700;28;20204;-73
2022/07/11 01:16:08;;;;;;;0.80;0.80;;;21.60;50.00;;;;;;4997709;28;20617;-73
2022/07/11 01:18:35;;;;;;;0.80;0.80;;;21.60;50.00;;;;;;5014675;28;20668;-72
2022/07/11 01:21:04;;;;;;;1.10;0.90;;;21.60;50.60;;;;;;4997705;28;20573;-73
2022/07/11 01:23:33;;;;;;;1.00;0.80;;;21.60;50.00;;;;;;5013448;28;20209;-73
2022/07/11 01:26:00;;;;;;;0.80;0.80;;;21.60;50.00;;;;;;5013376;28;20662;-73
2022/07/11 01:28:27;;;;;;;0.80;0.80;;;21.50;49.90;;;;;;4997467;28;20243;-72
2022/07/11 01:30:54;;;;;;;1.15;1.08;;;21.60;50.10;;;;;;4997136;28;20211;-73
2022/07/11 01:33:21;;;;;;;0.80;0.80;;;21.50;50.00;;;;;;4997052;28;20200;-73
2022/07/11 01:35:48;;;;;;;0.93;0.93;;;21.60;50.10;;;;;;4996880;28;20195;-72
2022/07/11 01:38:15;;;;;;;0.90;0.90;;;21.60;50.10;;;;;;5014389;28;20200;-73
2022/07/11 01:40:43;;;;;;;1.35;1.13;;;21.50;50.10;;;;;;4996571;28;20230;-73
2022/07/11 01:43:11;;;;;;;0.80;0.80;;;21.50;50.10;;;;;;4996963;28;20200;-73
2022/07/11 01:45:37;;;;;;;1.30;0.90;;;21.50;50.20;;;;;;5013308;28;20658;-73
2022/07/11 01:48:05;;;;;;;1.50;0.98;;;21.50;50.20;;;;;;4996587;28;20197;-73
2022/07/11 01:50:32;;;;;;;0.80;0.80;;;21.50;50.20;;;;;;4996504;28;20250;-73
2022/07/11 01:53:01;;;;;;;1.10;1.00;;;21.50;50.20;;;;;;4996706;28;20228;-72
2022/07/11 01:55:28;;;;;;;0.90;0.90;;;21.50;50.30;;;;;;5014260;28;20193;-72
2022/07/11 01:57:57;;;;;;;1.10;1.00;;;21.50;50.30;;;;;;5012900;28;20583;-73
2022/07/11 02:00:27;;;;;;;1.20;1.10;;;21.50;50.30;;;;;;4996397;28;20232;-73
2022/07/11 02:02:54;;;;;;;1.00;0.90;;;21.50;50.30;;;;;;4996589;28;20220;-73
2022/07/11 02:05:21;;;;;;;0.70;0.70;;;21.50;50.30;;;;;;5013932;28;20189;-72
2022/07/11 02:10:33;;;;;;;0.80;0.80;;;21.50;50.30;;;;;;5012860;28;20196;-72
2022/07/11 02:13:01;;;;;;;0.82;0.80;;;21.50;50.30;;;;;;4996503;28;20732;-72
2022/07/11 02:15:29;;;;;;;1.00;0.95;;;21.50;50.30;;;;;;4996371;28;20210;-72
2022/07/11 02:17:56;;;;;;;0.77;0.77;;;21.50;50.30;;;;;;4996412;28;20197;-72
2022/07/11 02:20:24;;;;;;;1.02;0.90;;;21.50;50.40;;;;;;4996303;28;20226;-73
2022/07/11 02:22:51;;;;;;;0.93;0.93;;;21.50;50.40;;;;;;5013683;28;20219;-73
2022/07/11 02:25:19;;;;;;;0.90;0.80;;;21.50;50.40;;;;;;5012638;28;20216;-72
2022/07/11 02:27:46;;;;;;;1.10;1.00;;;21.50;50.30;;;;;;5012646;28;20644;-73
2022/07/11 02:30:14;;;;;;;1.45;0.90;;;21.50;50.40;;;;;;5012716;28;20255;-72
2022/07/11 02:32:42;;;;;;;0.88;0.88;;;21.50;50.40;;;;;;4996080;28;20244;-72
2022/07/11 02:35:09;;;;;;;0.93;0.82;;;21.50;50.40;;;;;;5012755;28;20196;-73
2022/07/11 02:37:37;;;;;;;1.20;1.00;;;21.50;50.40;;;;;;5014020;28;20191;-72
2022/07/11 02:40:05;;;;;;;0.90;0.90;;;21.50;50.40;;;;;;5012476;28;20224;-72
2022/07/11 02:42:33;;;;;;;0.80;0.80;;;21.50;50.40;;;;;;5012555;28;20713;-72
2022/07/11 02:44:59;;;;;;;1.20;1.02;;;21.50;50.40;;;;;;5013560;28;20200;-72
2022/07/11 02:47:28;;;;;;;1.00;1.00;;;21.50;50.40;;;;;;5013881;28;20195;-72
2022/07/11 02:49:55;;;;;;;1.20;0.95;;;21.50;50.40;;;;;;5013942;28;20283;-72
2022/07/11 02:52:22;;;;;;;0.90;0.90;;;21.50;50.40;;;;;;5016606;28;20223;-73
2022/07/11 02:57:25;;;;;;;1.10;1.00;;;21.50;50.40;;;;;;5018847;23;20240;-72
2022/07/11 02:59:52;;;;;;;0.80;0.80;;;21.50;50.50;;;;;;5000046;28;20196;-72
2022/07/11 03:02:19;;;;;;;1.08;0.98;;;21.50;50.40;;;;;;5000035;28;20723;-72
2022/07/11 03:04:48;;;;;;;1.00;1.00;;;21.50;50.50;;;;;;5000000;28;20207;-72
2022/07/11 03:07:16;;;;;;;0.88;0.88;;;21.50;50.50;;;;;;4980684;28;20198;-72
2022/07/11 03:09:43;;;;;;;0.82;0.70;;;21.50;50.40;;;;;;4980499;28;20264;-72
2022/07/11 03:12:10;;;;;;;0.80;0.80;;;21.40;50.40;;;;;;4980770;28;20260;-72
2022/07/11 03:14:37;;;;;;;0.88;0.88;;;21.50;50.50;;;;;;4980612;28;20640;-72
2022/07/11 03:17:05;;;;;;;1.23;1.00;;;21.50;50.40;;;;;;4980339;28;20256;-72
2022/07/11 03:19:32;;;;;;;0.90;0.90;;;21.50;50.40;;;;;;4980345;28;20201;-72
2022/07/11 03:22:00;;;;;;;1.52;1.08;;;21.50;50.40;;;;;;4980169;28;20214;-72
2022/07/11 03:24:27;;;;;;;1.25;1.00;;;21.50;50.40;;;;;;4997864;28;20182;-72
2022/07/11 03:26:54;;;;;;;1.10;1.00;;;21.50;51.00;;;;;;4981219;28;20225;-72
2022/07/11 03:29:21;;;;;;;0.90;0.90;;;21.60;50.40;;;;;;4980529;28;20209;-72
2022/07/11 03:31:48;;;;;;;1.38;1.00;;;21.60;50.30;;;;;;4980171;28;20197;-72
2022/07/11 03:34:15;;;;;;;1.30;1.08;;;21.60;50.10;;;;;;4980667;28;20268;-72
2022/07/11 03:36:42;;;;;;;1.48;1.05;;;21.70;50.10;;;;;;4987515;28;20217;-72
2022/07/11 03:39:11;;;;;;;1.20;1.10;;;21.70;50.00;;;;;;4990299;28;20666;-72
2022/07/11 03:41:38;;;;;;;1.35;0.90;;;21.70;50.00;;;;;;4980332;28;20275;-72
2022/07/11 03:44:05;;;;;;;1.20;1.10;;;21.80;50.00;;;;;;4997414;28;20276;-72
2022/07/11 03:46:32;;;;;;;0.80;0.80;;;21.80;50.00;;;;;;4979795;28;20225;-72
2022/07/11 03:48:59;;;;;;;1.10;1.00;;;21.80;50.00;;;;;;4979659;28;20209;-72
2022/07/11 03:51:28;;;;;;;1.42;1.10;;;21.80;49.90;;;;;;4979912;28;20201;-72
2022/07/11 03:53:55;;;;;;;0.82;0.82;;;21.80;49.90;;;;;;4979343;28;20570;-72
2022/07/11 03:56:23;;;;;;;1.40;1.10;;;21.80;49.90;;;;;;4979642;28;20243;-72
2022/07/11 03:58:50;;;;;;;0.90;0.90;;;21.80;49.90;;;;;;4997268;28;20281;-72
2022/07/11 04:01:18;;;;;;;0.88;0.88;;;21.80;49.90;;;;;;4979047;28;20225;-72
2022/07/11 04:03:45;;;;;;;1.00;0.90;;;21.80;49.90;;;;;;4979225;28;20228;-71
2022/07/11 04:06:13;;;;;;;1.20;1.00;;;21.80;49.80;;;;;;4979340;28;20645;-71
2022/07/11 04:08:39;;;;;;;1.20;1.10;;;21.80;49.80;;;;;;4979497;28;20666;-71
2022/07/11 04:11:06;;;;;;;1.30;1.20;;;21.90;49.70;;;;;;4996565;28;20253;-71
2022/07/11 04:13:35;;;;;;;2.25;1.13;;;21.90;49.70;;;;;;5185014;23;20218;-68
2022/07/11 04:16:02;;;;;;;1.45;1.35;;;21.80;49.90;;;;;;4994565;28;20763;-72
2022/07/11 04:18:30;;;;;;;2.67;1.05;;;21.80;50.10;;;;;;4995316;28;20232;-72
2022/07/11 04:20:57;;;;;;;1.70;1.40;;;21.80;50.40;;;;;;4980749;28;20221;-72
2022/07/11 04:23:24;;;;;;;1.30;1.20;;;21.80;50.90;;;;;;4995305;28;20193;-72
2022/07/11 04:25:51;;;;;;;1.50;1.40;;;21.80;51.10;;;;;;4995040;28;20244;-72
2022/07/11 04:28:18;;;;;;;1.98;1.30;;;21.80;51.30;;;;;;4978772;28;20209;-72
2022/07/11 04:30:47;;;;;;;2.45;1.40;;;21.70;51.30;;;;;;4979018;28;20217;-72
2022/07/11 04:33:14;;;;;;;2.35;1.40;;;21.70;50.90;;;;;;4995274;28;20202;-72
2022/07/11 04:35:42;;;;;;;1.50;1.20;;;21.70;50.90;;;;;;4994652;28;20217;-72
2022/07/11 04:38:09;;;;;;;2.85;1.40;;;21.70;51.00;;;;;;5057054;23;20236;-71
2022/07/11 04:40:36;;;;;;;1.67;1.40;;;21.70;51.00;;;;;;4978367;28;20224;-72
2022/07/11 04:43:03;;;;;;;2.20;1.38;;;21.70;51.20;;;;;;4978372;28;20240;-72
2022/07/11 04:45:30;;;;;;;3.40;1.50;;;21.70;51.20;;;;;;4995906;28;20216;-72
2022/07/11 04:47:59;;;;;;;1.23;1.20;;;21.70;51.30;;;;;;5044739;22;20273;-72
2022/07/11 04:50:26;;;;;;;1.50;1.40;;;21.70;51.30;;;;;;4978322;28;20209;-72
2022/07/11 04:52:53;;;;;;;2.60;1.30;;;21.70;51.30;;;;;;4978155;28;20208;-73
2022/07/11 04:55:20;;;;;;;2.03;1.42;;;21.70;51.30;;;;;;5103496;23;20229;-72
2022/07/11 04:57:48;;;;;;;1.50;1.40;;;21.70;51.30;;;;;;5107745;22;20313;-73
2022/07/11 05:02:59;;;;;;;1.50;1.40;;;21.70;51.30;;;;;;5085181;22;20239;-72
2022/07/11 05:05:27;;;;;;;1.58;1.30;;;21.70;51.40;;;;;;5151102;23;20229;-71
2022/07/11 05:07:54;;;;;;;2.20;1.40;;;21.70;51.50;;;;;;4995616;28;20285;-72
2022/07/11 05:10:21;;;;;;;2.13;1.50;;;21.70;51.30;;;;;;4977888;28;20212;-72
2022/07/11 05:12:48;;;;;;;1.38;1.27;;;21.70;51.20;;;;;;4977517;28;20603;-73
2022/07/11 05:15:15;;;;;;;1.48;1.30;;;21.80;51.20;;;;;;4977915;28;20600;-73
2022/07/11 05:17:42;;;;;;;1.83;1.50;;;21.80;51.10;;;;;;4984328;28;20201;-72
2022/07/11 05:20:11;;;;;;;1.80;1.48;;;21.80;50.80;;;;;;4983729;28;20205;-72
2022/07/11 05:22:38;;;;;;;1.80;1.50;;;21.80;50.80;;;;;;4979212;28;20293;-72
2022/07/11 05:25:06;;;;;;;3.22;1.48;;;21.80;50.70;;;;;;4977718;28;20213;-72
2022/07/11 05:27:33;;;;;;;1.58;1.35;;;21.80;50.80;;;;;;4977878;28;20209;-71
2022/07/11 05:30:00;;;;;;;2.78;1.40;;;21.90;50.80;;;;;;4977840;28;20208;-72
2022/07/11 05:32:27;;;;;;;1.90;1.23;;;21.90;50.80;;;;;;4977662;28;20200;-72
2022/07/11 05:34:56;;;;;;;2.22;1.60;;;21.90;50.80;;;;;;4977515;28;20658;-72
2022/07/11 05:37:25;;;;;;;1.73;1.30;;;21.90;50.80;;;;;;4977393;28;20201;-72
2022/07/11 05:39:52;;;;;;;1.60;1.50;;;21.90;50.70;;;;;;4977364;28;20201;-72
2022/07/11 05:42:19;;;;;;;1.65;1.40;;;21.90;50.40;;;;;;4994626;28;20283;-72
2022/07/11 05:44:46;;;;;;;1.95;1.63;;;21.90;50.40;;;;;;4996441;28;20309;-71
2022/07/11 05:47:13;;;;;;;1.85;1.48;;;22.00;50.40;;;;;;5169652;22;20310;-72
2022/07/11 05:49:41;;;;;;;2.45;1.65;;;22.00;50.40;;;;;;4977517;28;20201;-73
2022/07/11 05:52:09;;;;;;;1.40;1.30;;;22.00;50.30;;;;;;4977099;28;20217;-73
2022/07/11 05:54:37;;;;;;;2.30;1.75;;;22.10;50.20;;;;;;4977016;28;20193;-73
2022/07/11 05:57:05;;;;;;;3.17;1.52;;;22.10;50.20;;;;;;4976827;28;20221;-73
2022/07/11 05:59:32;;;;;;;1.50;1.40;;;22.20;50.30;;;;;;4977284;28;20203;-73
2022/07/11 06:01:59;;;;;;;1.50;1.40;;;22.20;50.10;;;;;;4977183;28;20240;-73
2022/07/11 06:04:26;;;;;;;2.53;1.50;;;22.30;50.00;;;;;;4977305;28;20203;-73
2022/07/11 06:06:53;;;;;;;2.38;1.35;;;22.30;49.80;;;;;;4977288;28;20235;-72
2022/07/11 06:09:19;;;;;;;1.83;1.38;;;22.40;49.70;;;;;;4977323;28;20301;-73
2022/07/11 06:11:47;;;;;;;2.10;1.60;;;22.40;49.70;;;;;;4977002;28;20189;-73
2022/07/11 06:14:14;;;;;;;2.20;1.70;;;22.40;49.50;;;;;;4976872;28;20198;-73
2022/07/11 06:16:42;;;;;;;1.67;1.58;;;22.50;49.40;;;;;;4976837;28;20268;-73
2022/07/11 06:19:09;;;;;;;1.90;1.60;;;22.50;49.30;;;;;;4976789;28;20189;-74
2022/07/11 06:21:35;;;;;;;2.10;1.58;;;22.60;49.30;;;;;;4994246;28;20220;-73
2022/07/11 06:24:03;;;;;;;1.50;1.30;;;22.60;49.10;;;;;;4976750;28;20689;-73
2022/07/11 06:26:29;;;;;;;1.85;1.70;;;22.60;49.10;;;;;;4976771;28;20233;-73
2022/07/11 06:28:58;;;;;;;1.48;1.30;;;22.60;48.90;;;;;;4976636;28;20204;-74
2022/07/11 06:31:25;;;;;;;2.20;1.60;;;22.70;48.90;;;;;;4976888;28;20662;-73
2022/07/11 06:33:56;;;;;;;1.77;1.35;;;22.70;48.80;;;;;;4976694;28;20572;-73
2022/07/11 06:36:23;;;;;;;2.08;1.50;;;22.80;48.90;;;;;;4976465;28;20256;-73
2022/07/11 06:38:51;;;;;;;1.75;1.50;;;22.80;48.80;;;;;;4976831;28;20296;-73
2022/07/11 06:41:18;;;;;;;2.78;1.63;;;22.80;48.70;;;;;;4976594;28;20213;-73
2022/07/11 06:43:47;;;;;;;1.98;1.45;;;22.80;48.60;;;;;;4976419;28;20666;-73
2022/07/11 06:46:16;;;;;;;2.40;1.70;;;22.80;48.60;;;;;;4993738;28;20299;-73
2022/07/11 06:48:42;;;;;;;2.08;1.40;;;22.90;48.50;;;;;;4976487;28;20201;-73
2022/07/11 06:51:10;;;;;;;2.50;1.60;;;22.90;49.10;;;;;;4976516;28;20670;-73
2022/07/11 06:53:37;;;;;;;2.55;1.50;;;23.00;48.50;;;;;;4976519;28;20235;-73
2022/07/11 06:56:04;;;;;;;3.58;2.00;;;22.90;48.30;;;;;;4993562;28;20300;-73
2022/07/11 06:58:34;;;;;;;1.52;1.42;;;22.90;48.20;;;;;;4976441;28;20210;-73
2022/07/11 07:01:01;;;;;;;1.70;1.50;;;23.00;48.30;;;;;;4976198;28;20292;-73
2022/07/11 07:03:30;;;;;;;3.08;1.60;;;23.00;48.20;;;;;;4976494;28;20197;-73
2022/07/11 07:05:57;;;;;;;1.70;1.40;;;23.00;48.20;;;;;;4976372;28;20690;-73
2022/07/11 07:08:25;;;;;;;2.72;1.48;;;23.00;48.20;;;;;;4976640;28;20208;-73
2022/07/11 07:10:52;;;;;;;1.55;1.25;;;23.10;48.30;;;;;;4976413;28;20201;-73
2022/07/11 07:13:20;;;;;;;1.65;1.50;;;23.10;48.90;;;;;;4976334;28;20252;-73
2022/07/11 07:15:47;;;;;;;1.75;1.60;;;23.10;48.30;;;;;;4976418;28;20709;-73
2022/07/11 07:18:14;;;;;;;2.63;1.55;;;23.20;48.20;;;;;;4993925;28;20189;-73
2022/07/11 07:20:43;;;;;;;2.38;1.58;;;23.20;48.10;;;;;;4976657;28;20750;-73
2022/07/11 07:23:10;;;;;;;3.55;1.60;;;23.30;48.00;;;;;;4976393;28;20229;-73
2022/07/11 07:25:37;;;;;;;2.25;1.50;;;23.30;47.90;;;;;;4976137;28;20221;-73
2022/07/11 07:28:05;;;;;;;1.67;1.40;;;23.30;47.70;;;;;;4976201;28;20244;-73
2022/07/11 07:30:32;;;;;;;3.58;1.90;;;23.40;47.70;;;;;;4976712;28;20201;-73
2022/07/11 07:33:00;;;;;;;2.17;1.63;;;23.40;47.60;;;;;;4993902;28;20190;-73
2022/07/11 07:35:27;;;;;;;1.55;1.42;;;23.50;47.50;;;;;;4976852;28;20218;-73
2022/07/11 07:37:56;;;;;;;1.50;1.40;;;23.50;47.40;;;;;;4979475;28;20201;-73
2022/07/11 07:40:23;;;;;;;2.65;1.45;;;23.60;47.20;;;;;;4980399;28;20670;-73
2022/07/11 07:42:50;;;;;;;2.50;1.55;;;23.60;47.20;;;;;;4980915;28;20217;-73
2022/07/11 07:45:17;;;;;;;1.80;1.60;;;23.80;47.00;;;;;;4979848;28;20213;-73
2022/07/11 07:47:44;;;;;;;1.90;1.73;;;23.80;46.90;;;;;;4979325;28;20209;-73
2022/07/11 07:50:11;;;;;;;2.08;1.33;;;23.90;46.80;;;;;;4978729;28;20208;-73
2022/07/11 07:52:38;;;;;;;2.15;1.50;;;24.00;46.70;;;;;;4978573;28;20292;-73
2022/07/11 07:55:08;;;;;;;1.50;1.30;;;24.10;46.40;;;;;;4978407;28;20237;-73
2022/07/11 07:57:36;;;;;;;1.88;1.48;;;24.20;46.10;;;;;;4978936;28;20670;-73
2022/07/11 08:02:50;;;;;;;2.13;1.30;;;24.60;45.50;;;;;;4995616;28;20692;-74
2022/07/11 08:05:18;;;;;;;2.03;1.60;;;24.80;45.10;;;;;;4978159;28;20272;-73
2022/07/11 08:07:45;;;;;;;1.63;1.52;;;25.00;44.60;;;;;;4995863;28;20194;-73
2022/07/11 08:10:14;;;;;;;1.80;1.20;;;25.20;44.10;;;;;;4978279;28;20252;-73
2022/07/11 08:12:41;;;;;;;1.80;1.50;;;25.40;43.80;;;;;;4978231;28;20200;-73
2022/07/11 08:15:09;;;;;;;2.58;1.55;;;25.60;43.40;;;;;;4977953;28;20666;-74
2022/07/11 08:17:36;;;;;;;1.55;1.10;;;25.70;43.10;;;;;;4978082;28;20284;-73
2022/07/11 08:20:04;;;;;;;1.65;1.50;;;25.80;42.70;;;;;;4978268;28;20205;-73
2022/07/11 08:22:31;;;;;;;1.40;1.30;;;25.90;42.50;;;;;;4977955;28;20589;-73
2022/07/11 08:24:59;;;;;;;1.40;1.30;;;26.00;42.30;;;;;;4977768;28;20205;-73
2022/07/11 08:27:27;;;;;;;1.48;1.33;;;26.10;42.20;;;;;;4978103;28;20202;-73
2022/07/11 08:29:54;;;;;;;1.75;1.40;;;26.30;42.00;;;;;;4977731;28;20225;-73
2022/07/11 08:32:21;;;;;;;2.45;1.40;;;26.30;41.60;;;;;;4977605;28;20197;-73
2022/07/11 08:34:49;;;;;;;1.40;1.30;;;26.40;41.50;;;;;;4977826;28;20197;-73
2022/07/11 08:37:15;;;;;;;1.35;1.25;;;26.40;41.50;;;;;;4977593;28;20194;-73
2022/07/11 08:39:43;;;;;;;1.55;1.45;;;26.50;41.50;;;;;;4977678;28;20284;-73
2022/07/11 08:42:10;;;;;;;1.40;1.30;;;26.50;41.40;;;;;;4977637;28;20320;-73
2022/07/11 08:44:39;;;;;;;1.67;1.10;;;26.50;41.20;;;;;;4978276;28;20202;-73
2022/07/11 08:47:07;;;;;;;2.03;1.40;;;26.60;41.20;;;;;;4928073;28;1480090;-73
2022/07/11 08:49:33;;;;;;;1.33;1.20;;;26.60;41.10;;;;;;4979258;28;20207;-73
2022/07/11 08:52:01;;;;;;;1.33;1.23;;;26.60;41.00;;;;;;4978556;28;20193;-74
2022/07/11 08:54:28;;;;;;;1.35;1.20;;;26.60;40.90;;;;;;4978441;28;20234;-73
2022/07/11 08:56:55;;;;;;;1.75;1.33;;;26.70;41.00;;;;;;4979454;28;20744;-74
2022/07/11 08:59:24;;;;;;;1.50;1.40;;;26.70;41.00;;;;;;4980362;28;20244;-73
2022/07/11 09:01:52;;;;;;;1.40;1.30;;;26.70;40.90;;;;;;4979872;28;20296;-73
2022/07/11 09:04:19;;;;;;;1.30;1.20;;;26.70;40.90;;;;;;4978713;28;20293;-73
2022/07/11 09:06:46;;;;;;;1.58;1.20;;;26.70;40.90;;;;;;4978239;28;20725;-73
2022/07/11 09:09:13;;;;;;;1.45;1.20;;;26.70;40.80;;;;;;4978356;28;20209;-73
2022/07/11 09:11:51;;;;;;;1.30;1.20;;;26.80;40.90;;;;;;4977971;28;20197;-73
2022/07/11 09:14:22;;;;;;;1.30;1.20;;;26.80;40.80;;;;;;4978281;28;20560;-73
2022/07/11 09:16:55;;;;;;;1.75;1.27;;;26.80;40.90;;;;;;4977930;28;20225;-74
2022/07/11 09:19:23;;;;;;;2.15;1.30;;;26.70;40.90;;;;;;4995985;28;20580;-73
2022/07/11 09:27:44;;;;;;;1.30;1.20;;;26.80;40.90;;;;;;4995317;28;20227;-73
2022/07/11 09:30:20;;;;;;;1.30;1.25;;;26.60;41.00;;;;;;4995459;28;20193;-74
2022/07/11 09:32:55;;;;;;;1.40;1.30;;;26.60;41.30;;;;;;4977801;28;20201;-73
2022/07/11 09:35:23;;;;;;;1.58;1.40;;;26.50;41.50;;;;;;4977772;28;20292;-74
2022/07/11 09:37:50;;;;;;;1.42;1.27;;;26.50;41.50;;;;;;4977818;28;20200;-74
2022/07/11 09:40:17;;;;;;;1.10;1.00;;;26.50;41.30;;;;;;4977799;28;20236;-74
2022/07/11 09:42:48;;;;;;;1.30;1.20;;;26.60;41.90;;;;;;4977703;28;20217;-74
2022/07/11 09:45:17;;;;;;;1.30;1.20;;;26.60;41.30;;;;;;4977301;28;20231;-74
2022/07/11 09:47:45;;;;;;;1.20;1.10;;;26.50;41.40;;;;;;4977660;28;20215;-74
2022/07/11 09:50:13;;;;;;;1.50;1.40;;;26.40;41.50;;;;;;4977684;28;20201;-74
2022/07/11 09:52:43;;;;;;;1.65;1.30;;;26.30;41.70;;;;;;4978729;28;20196;-73
2022/07/11 09:55:11;;;;;;;1.38;1.27;;;26.30;41.90;;;;;;4979782;28;20312;-73
2022/07/11 09:57:39;;;;;;;1.40;1.20;;;26.30;41.90;;;;;;4978015;28;20193;-73
2022/07/11 10:00:08;;;;;;;1.20;1.10;;;26.20;41.90;;;;;;4978336;28;20208;-74
2022/07/11 10:02:35;;;;;;;1.30;1.20;;;26.20;42.70;;;;;;4978297;28;20759;-73
2022/07/11 10:05:03;;;;;;;1.30;1.20;;;26.10;42.20;;;;;;4995173;28;20245;-74
2022/07/11 10:07:31;;;;;;;1.30;1.20;;;26.00;42.40;;;;;;4994863;28;20190;-73
2022/07/11 10:09:59;;;;;;;1.27;1.17;;;25.90;42.50;;;;;;4977725;28;20193;-73
2022/07/11 10:12:26;;;;;;;1.15;1.10;;;25.90;42.60;;;;;;4977512;28;20580;-74
2022/07/11 10:14:53;;;;;;;1.33;1.23;;;25.80;42.70;;;;;;4977218;28;20229;-73
2022/07/11 10:17:28;;;;;;;1.30;1.20;;;25.80;42.90;;;;;;4978153;28;20204;-74
2022/07/11 10:19:59;;;;;;;1.40;1.30;;;25.80;43.00;;;;;;4994837;28;20208;-73
2022/07/11 10:22:29;;;;;;;1.20;1.10;;;25.70;43.00;;;;;;4977813;28;20237;-73
2022/07/11 10:24:59;;;;;;;1.38;1.13;;;25.70;43.00;;;;;;4977670;28;20201;-74
2022/07/11 10:27:30;;;;;;;1.17;1.08;;;25.70;43.10;;;;;;4978437;28;20203;-73
2022/07/11 10:29:58;;;;;;;1.83;1.33;;;25.60;43.10;;;;;;4977586;28;20201;-73
2022/07/11 10:32:25;;;;;;;1.23;1.13;;;25.60;43.30;;;;;;4977581;28;20197;-73
2022/07/11 10:35:12;;;;;;;1.08;1.08;;;25.60;43.30;;;;;;4995649;28;20195;-74
2022/07/11 10:37:48;;;;;;;1.30;1.20;;;25.60;43.30;;;;;;4980836;28;20208;-73
2022/07/11 10:40:16;;;;;;;1.20;1.10;;;25.60;43.30;;;;;;4998054;28;20189;-73
2022/07/11 10:42:44;;;;;;;1.30;1.20;;;25.60;43.30;;;;;;4980407;28;20698;-73
2022/07/11 10:45:11;;;;;;;1.42;1.10;;;25.70;43.30;;;;;;4978967;28;20209;-73
2022/07/11 10:47:42;;;;;;;1.60;1.20;;;25.70;43.20;;;;;;4977707;28;20205;-73
2022/07/11 10:50:20;;;;;;;1.50;1.20;;;25.70;43.00;;;;;;4978183;28;20205;-73
2022/07/11 10:52:48;;;;;;;1.30;1.20;;;25.70;43.00;;;;;;4980482;28;20193;-74
2022/07/11 10:55:24;;;;;;;1.10;1.10;;;25.80;43.00;;;;;;4977619;28;20588;-73
2022/07/11 10:57:58;;;;;;;1.25;1.10;;;25.80;42.90;;;;;;4977314;28;20193;-73
2022/07/11 11:00:25;;;;;;;1.05;1.05;;;25.90;43.00;;;;;;4976902;28;20634;-73
2022/07/11 11:03:04;;;;;;;1.00;1.00;;;25.80;42.90;;;;;;4976655;28;20220;-73
2022/07/11 11:05:47;;;;;;;1.10;1.10;;;25.90;43.00;;;;;;4976638;28;20603;-73
2022/07/11 11:08:47;;;;;;;1.08;0.98;;;25.80;43.00;;;;;;4976456;28;20256;-73
2022/07/11 11:11:38;;;;;;;1.15;1.10;;;25.80;43.00;;;;;;4977222;28;20260;-73
2022/07/11 11:14:32;;;;;;;1.05;1.05;;;25.80;43.10;;;;;;4980958;28;20221;-75
2022/07/11 11:17:33;;;;;;;0.90;0.90;;;25.80;43.00;;;;;;4965158;28;20236;-73
2022/07/11 11:20:01;;;;;;;1.30;1.20;;;25.80;43.10;;;;;;4983391;28;20575;-73
2022/07/11 11:22:28;;;;;;;1.00;1.00;;;25.80;43.10;;;;;;4980642;28;20201;-73
2022/07/11 11:24:56;;;;;;;0.98;0.98;;;25.80;43.10;;;;;;4980848;28;20300;-73
2022/07/11 11:27:25;;;;;;;1.02;1.02;;;25.80;43.20;;;;;;4983083;28;20209;-73
2022/07/11 11:29:53;;;;;;;1.40;1.30;;;25.70;43.20;;;;;;4980360;28;20681;-73
2022/07/11 11:32:20;;;;;;;1.20;1.10;;;25.70;43.20;;;;;;4980094;28;20229;-73
2022/07/11 11:34:47;;;;;;;1.20;1.10;;;25.70;43.20;;;;;;4997563;28;20185;-73
2022/07/11 11:37:16;;;;;;;1.10;1.00;;;25.70;43.30;;;;;;4980256;28;20576;-73
2022/07/11 11:39:43;;;;;;;1.30;1.00;;;25.70;43.30;;;;;;4980139;28;20197;-74
2022/07/11 11:42:15;;;;;;;1.83;1.20;;;25.70;43.30;;;;;;4979683;28;20204;-73
2022/07/11 11:44:55;;;;;;;1.15;1.10;;;25.70;43.40;;;;;;4979967;28;20628;-74
2022/07/11 11:47:23;;;;;;;1.25;1.15;;;25.70;43.40;;;;;;4980102;28;20236;-74
2022/07/11 11:49:50;;;;;;;1.20;1.10;;;25.70;43.40;;;;;;4979816;28;20209;-73
2022/07/11 11:52:18;;;;;;;1.20;1.10;;;25.70;43.40;;;;;;4979902;28;20195;-74
2022/07/11 11:54:51;;;;;;;1.15;1.05;;;25.70;43.40;;;;;;4980047;28;20205;-74
2022/07/11 11:57:18;;;;;;;1.33;1.10;;;25.70;43.40;;;;;;4979760;28;20299;-73
2022/07/11 11:59:45;;;;;;;0.90;0.90;;;25.70;43.40;;;;;;4979769;28;20574;-73
2022/07/11 12:02:13;;;;;;;1.10;1.10;;;25.70;43.40;;;;;;4980050;28;20201;-74
2022/07/11 12:04:41;;;;;;;0.82;0.82;;;25.70;43.40;;;;;;4979367;28;20231;-74
2022/07/11 12:07:08;;;;;;;1.20;1.10;;;25.70;43.40;;;;;;4979584;28;20221;-74
2022/07/11 12:09:52;;;;;;;1.10;1.00;;;25.70;43.50;;;;;;4980514;28;20201;-74
2022/07/11 12:15:06;;;;;;;0.95;0.95;;;25.60;43.50;;;;;;4979436;28;20197;-73
2022/07/11 12:17:35;;;;;;;1.10;1.00;;;25.60;43.50;;;;;;4996782;28;20200;-74
2022/07/11 12:20:02;;;;;;;1.23;1.13;;;25.60;43.60;;;;;;4979322;28;20203;-74
2022/07/11 12:22:29;;;;;;;1.30;1.20;;;25.60;43.70;;;;;;4979205;28;20194;-74
2022/07/11 12:24:57;;;;;;;1.30;1.20;;;25.60;43.70;;;;;;4979062;28;20686;-74
2022/07/11 12:27:26;;;;;;;0.98;0.98;;;25.60;44.40;;;;;;4978964;28;20205;-74
2022/07/11 12:29:53;;;;;;;1.15;1.10;;;25.50;43.80;;;;;;4978856;28;20193;-74
2022/07/11 12:32:21;;;;;;;1.00;1.00;;;25.50;44.00;;;;;;4978698;28;20201;-74
2022/07/11 12:34:50;;;;;;;1.02;1.02;;;25.50;44.00;;;;;;4978673;28;20205;-73
2022/07/11 12:37:18;;;;;;;0.90;0.90;;;25.40;44.00;;;;;;4978552;28;20284;-73
2022/07/11 12:39:51;;;;;;;1.05;1.02;;;25.40;44.10;;;;;;4978454;28;20224;-74
2022/07/11 12:42:22;;;;;;;1.20;1.10;;;25.40;44.20;;;;;;4978440;28;20385;-73
2022/07/11 12:45:07;;;;;;;0.98;0.98;;;25.40;44.80;;;;;;4978410;28;20220;-74
2022/07/11 12:47:35;;;;;;;1.10;1.10;;;25.40;44.20;;;;;;4979286;28;20264;-73
2022/07/11 12:50:12;;;;;;;0.90;0.90;;;25.40;44.30;;;;;;4978742;28;20221;-73
2022/07/11 12:52:40;;;;;;;1.73;1.10;;;25.40;44.30;;;;;;4996105;28;20181;-74
2022/07/11 12:55:11;;;;;;;0.93;0.90;;;25.40;44.30;;;;;;4978376;28;20200;-74
2022/07/11 12:57:38;;;;;;;1.30;1.20;;;25.30;44.30;;;;;;4978619;28;20201;-73
2022/07/11 13:00:16;;;;;;;1.10;1.00;;;25.30;44.40;;;;;;5017480;23;20229;-68
2022/07/11 13:02:50;;;;;;;1.10;1.00;;;25.30;44.40;;;;;;4978274;28;20200;-68
2022/07/11 13:05:19;;;;;;;0.80;0.80;;;25.30;44.40;;;;;;4978067;28;20217;-69
2022/07/11 13:10:50;;;;;;;0.90;0.90;;;25.30;44.50;;;;;;4978213;28;20217;-69
2022/07/11 13:13:17;;;;;;;0.98;0.98;;;25.30;44.50;;;;;;4977864;28;20197;-69
2022/07/11 13:15:44;;;;;;;0.80;0.80;;;25.30;44.50;;;;;;4977822;28;20190;-69
2022/07/11 13:18:11;;;;;;;1.27;1.17;;;25.30;44.50;;;;;;4977811;28;20201;-69